Beaver County Airport
KBVI : now visible

Airfield :











YOU CAN JOIN US ON...

 
LOGIN :

Register | Disclaimer

   EN    FR    IT 

 









Legend :    VFR   Marginal VFR   IFR   Intensive IFR   Very Intensive IFR
Visi :
Ceiling :
>= 8 km
>= 3000ft
5 to 8 km
1000 to 3000 ft
1500m to 5 km
500 to 1000 ft
800 to 1500m
200 to 500 ft
< 800m
< 200 ft
Symbols :   Thunderstorms  Fog  Heavy snow  Heavy precipitations  Wind > 20 kt






- Airport Elevation : 1253 ft


KBVI - Beaver County

CURRENT METAR :
  • 280155Z AUTO 18004KT 3SM RA OVC003 09/08 A3014 RMK AO2 T00910075

EXPIRED METARs :
  • 280135Z AUTO 15004KT 5SM DZ OVC003 09/07 A3013 RMK AO2 T00900073
  • 280115Z AUTO 00000KT 4SM -DZ OVC003 09/07 A3014 RMK AO2 T00910073
  • 280055Z AUTO 00000KT 4SM DZ OVC003 09/07 A3015 RMK AO2 T00910073
  • 280035Z AUTO 00000KT 4SM DZ OVC003 09/07 A3016 RMK AO2 T00910073
  • 280015Z AUTO 00000KT 3SM DZ OVC003 09/07 A3017 RMK AO2 T00920074
  • 272355Z AUTO 00000KT 4SM -RA BKN003 OVC018 09/07 A3018 RMK AO2 T00910073
  • 272335Z AUTO 00000KT 5SM BR BKN003 OVC018 09/07 A3018 RMK AO2 T00910073

TAF KBVI
Valid from the 28 at 00:00 until the 29 at 00:00 UTC


272328Z 2800/2824 00000KT 3SM -DZ BR BKN007
FM280300 24004KT 4SM BR VCSH OVC003
FM281200 26004KT P6SM OVC008
FM281500 25006KT P6SM BKN015
FM282200 23003KT P6SM OVC035
KZOB FIR / North America



MET'MAP, your aeronautical weather chart ! - Copyright ORBIFLY December 2007 - Disclaimer

ORBIFLY MET'MAP TEAM :

Programming & Development : Alexandra Zaïnal
Concept & original design : Baudouin d'Aumeries
Assistance for programming : Marc-Olivier Méhu
Technical & hardware support : Manuel Goepfert

Contact : metmap@orbifly.com




SOURCES & CREDITS :

   NOAA       Earth
Advisory